createdAt,value
2019-04-03T00:01:47.602Z,14.97
2019-04-03T00:04:21.127Z,14.98
2019-04-03T00:06:51.839Z,15.02
2019-04-03T00:09:22.775Z,15.04
2019-04-03T00:11:53.076Z,15.02
2019-04-03T00:14:24.439Z,15.00
2019-04-03T00:16:58.461Z,15.00
2019-04-03T00:19:31.195Z,15.04
2019-04-03T00:22:05.370Z,15.05
2019-04-03T00:24:35.490Z,15.07
2019-04-03T00:27:05.408Z,15.08
2019-04-03T00:29:35.554Z,15.09
2019-04-03T00:32:05.867Z,15.08
2019-04-03T00:34:35.728Z,15.07
2019-04-03T00:37:05.738Z,15.05
2019-04-03T00:39:36.384Z,15.00
2019-04-03T00:42:09.745Z,14.95
2019-04-03T00:44:39.803Z,14.91
2019-04-03T00:47:09.855Z,14.86
2019-04-03T00:50:00.549Z,14.86
2019-04-03T00:52:31.368Z,14.83
2019-04-03T00:55:01.501Z,14.79
2019-04-03T00:57:31.505Z,14.73
2019-04-03T01:00:01.048Z,14.65
2019-04-03T01:02:30.963Z,14.59
2019-04-03T01:05:01.168Z,14.53
2019-04-03T01:07:31.179Z,14.46
2019-04-03T01:10:01.026Z,14.39
2019-04-03T01:12:32.037Z,14.36
2019-04-03T01:15:02.347Z,14.31
2019-04-03T01:17:34.892Z,14.28
2019-04-03T01:20:07.961Z,14.23
2019-04-03T01:22:39.057Z,14.24
2019-04-03T01:25:09.533Z,14.19
2019-04-03T01:27:41.610Z,14.17
2019-04-03T01:30:13.879Z,14.12
2019-04-03T01:32:46.126Z,14.10
2019-04-03T01:35:17.409Z,14.06
2019-04-03T01:37:49.463Z,14.04
2019-04-03T01:40:20.919Z,14.04
2019-04-03T01:42:52.778Z,14.07
2019-04-03T01:45:25.263Z,14.08
2019-04-03T01:47:58.242Z,14.11
2019-04-03T01:50:28.656Z,14.10
2019-04-03T01:53:01.789Z,14.09
2019-04-03T01:55:31.030Z,14.04
2019-04-03T01:58:06.098Z,14.00
2019-04-03T02:00:37.643Z,13.96
2019-04-03T02:03:10.862Z,13.84
2019-04-03T02:05:43.825Z,13.77
2019-04-03T02:08:15.539Z,13.69
2019-04-03T02:10:48.946Z,13.62
2019-04-03T02:13:22.566Z,13.59
2019-04-03T02:15:53.680Z,13.53
2019-04-03T02:18:25.327Z,13.50
2019-04-03T02:20:57.749Z,12.85
2019-04-03T02:23:27.361Z,13.47
2019-04-03T02:26:02.466Z,13.45
2019-04-03T02:28:34.140Z,13.42
2019-04-03T02:31:03.814Z,13.39
2019-04-03T02:33:37.209Z,13.38
2019-04-03T02:36:11.181Z,13.38
2019-04-03T02:38:38.854Z,13.38
2019-04-03T02:41:09.037Z,13.39
2019-04-03T02:43:38.904Z,13.40
2019-04-03T02:46:09.261Z,13.39
2019-04-03T02:48:40.302Z,13.39
2019-04-03T02:51:10.307Z,13.40
2019-04-03T02:53:41.109Z,13.40
2019-04-03T02:56:14.799Z,13.40
2019-04-03T02:58:45.153Z,12.71
2019-04-03T03:01:18.174Z,13.39
2019-04-03T03:03:49.905Z,13.39
2019-04-03T03:06:23.172Z,13.40
2019-04-03T03:08:53.287Z,12.77
2019-04-03T03:11:24.810Z,13.38
2019-04-03T03:13:55.687Z,13.36
2019-04-03T03:16:27.622Z,12.79
2019-04-03T03:19:02.949Z,13.37
2019-04-03T03:21:34.245Z,13.39
2019-04-03T03:24:07.764Z,13.42
2019-04-03T03:26:38.509Z,13.44
2019-04-03T03:29:17.659Z,13.48
2019-04-03T03:32:01.610Z,13.49
2019-04-03T03:34:13.497Z,13.49
2019-04-03T03:36:44.459Z,13.51
2019-04-03T03:39:15.065Z,13.52
2019-04-03T03:41:45.665Z,13.55
2019-04-03T03:44:18.798Z,13.58
2019-04-03T03:46:49.041Z,13.60
2019-04-03T03:49:19.310Z,13.57
2019-04-03T03:51:50.270Z,13.54
2019-04-03T03:54:21.724Z,13.58
2019-04-03T03:56:52.983Z,13.58
2019-04-03T03:59:26.548Z,13.60
2019-04-03T04:01:57.646Z,13.60
2019-04-03T04:04:27.526Z,13.61
2019-04-03T04:07:03.432Z,13.64
2019-04-03T04:09:36.669Z,13.65
2019-04-03T04:12:07.670Z,13.66
2019-04-03T04:14:48.781Z,13.67
2019-04-03T04:17:19.068Z,13.67
2019-04-03T04:19:49.349Z,13.68
2019-04-03T04:22:26.809Z,13.65
2019-04-03T04:24:58.593Z,13.65
2019-04-03T04:27:28.099Z,13.68
2019-04-03T04:29:58.581Z,13.69
2019-04-03T04:32:30.064Z,13.73
2019-04-03T04:35:03.641Z,13.70
2019-04-03T04:37:33.861Z,13.70
2019-04-03T04:40:04.151Z,13.73
2019-04-03T04:42:34.813Z,13.72
2019-04-03T04:45:11.257Z,13.70
2019-04-03T04:47:40.865Z,13.73
2019-04-03T04:50:11.241Z,13.73
2019-04-03T04:52:41.550Z,13.73
2019-04-03T04:55:12.163Z,13.71
2019-04-03T04:57:42.222Z,13.75
2019-04-03T05:00:15.109Z,13.66
2019-04-03T05:02:44.505Z,13.65
2019-04-03T05:05:14.286Z,13.71
2019-04-03T05:07:44.496Z,13.75
2019-04-03T05:10:17.398Z,13.78
2019-04-03T05:12:46.533Z,13.81
2019-04-03T05:15:21.715Z,13.82
2019-04-03T05:17:57.090Z,13.84
2019-04-03T05:20:26.233Z,13.88
2019-04-03T05:22:57.112Z,13.93
2019-04-03T05:25:29.287Z,13.92
2019-04-03T05:28:02.779Z,13.92
2019-04-03T05:30:37.738Z,13.90
2019-04-03T05:33:10.720Z,13.92
2019-04-03T05:35:40.514Z,13.89
2019-04-03T05:38:10.351Z,13.88
2019-04-03T05:40:40.665Z,13.94
2019-04-03T05:43:10.624Z,13.99
2019-04-03T05:45:42.124Z,14.05
2019-04-03T05:48:13.582Z,14.11
2019-04-03T05:50:44.583Z,13.57
2019-04-03T05:53:15.982Z,14.22
2019-04-03T05:55:46.107Z,14.31
2019-04-03T05:58:19.477Z,14.36
2019-04-03T06:01:02.873Z,14.43
2019-04-03T06:03:38.837Z,14.55
2019-04-03T06:05:58.632Z,14.64
2019-04-03T06:08:29.333Z,14.73
2019-04-03T06:10:59.415Z,14.85
2019-04-03T06:13:32.741Z,14.95
2019-04-03T06:16:03.277Z,15.02
2019-04-03T06:18:36.480Z,15.10
2019-04-03T06:21:07.383Z,15.21
2019-04-03T06:23:38.901Z,15.28
2019-04-03T06:26:08.856Z,15.38
2019-04-03T06:28:39.190Z,15.46
2019-04-03T06:31:09.422Z,15.56
2019-04-03T06:33:40.549Z,15.63
2019-04-03T06:36:11.921Z,15.70
2019-04-03T06:38:41.716Z,15.79
2019-04-03T06:41:13.997Z,15.85
2019-04-03T06:43:43.813Z,15.87
2019-04-03T06:46:14.011Z,15.91
2019-04-03T06:48:44.131Z,15.93
2019-04-03T06:51:16.510Z,15.98
2019-04-03T06:53:46.430Z,16.01
2019-04-03T06:56:16.556Z,16.04
2019-04-03T06:58:46.541Z,16.03
2019-04-03T07:01:18.102Z,16.01
2019-04-03T07:03:48.272Z,16.00
2019-04-03T07:06:22.513Z,15.97
2019-04-03T07:08:52.720Z,15.96
2019-04-03T07:11:24.497Z,15.88
2019-04-03T07:13:55.823Z,15.85
2019-04-03T07:16:29.194Z,15.81
2019-04-03T07:19:02.463Z,15.81
2019-04-03T07:21:33.448Z,15.76
2019-04-03T07:24:05.427Z,15.81
2019-04-03T07:26:36.292Z,15.84
2019-04-03T07:29:06.320Z,15.89
2019-04-03T07:31:36.321Z,16.02
2019-04-03T07:34:06.857Z,15.99
2019-04-03T07:36:41.299Z,16.02
2019-04-03T07:39:11.936Z,15.97
2019-04-03T07:41:42.154Z,15.93
2019-04-03T07:44:12.334Z,15.86
2019-04-03T07:46:43.150Z,15.81
2019-04-03T07:49:14.186Z,15.84
2019-04-03T07:51:44.874Z,15.80
2019-04-03T07:54:18.256Z,15.81
2019-04-03T07:56:48.379Z,15.79
2019-04-03T07:59:19.929Z,15.78
2019-04-03T08:01:51.748Z,15.80
2019-04-03T08:04:24.790Z,15.85
2019-04-03T08:06:55.706Z,15.88
2019-04-03T08:09:26.290Z,15.89
2019-04-03T08:11:56.631Z,15.95
2019-04-03T08:14:26.830Z,16.02
2019-04-03T08:16:58.567Z,16.08
2019-04-03T08:19:30.373Z,16.08
2019-04-03T08:22:01.889Z,16.33
2019-04-03T08:24:33.433Z,16.58
2019-04-03T08:27:03.726Z,16.29
2019-04-03T08:29:38.218Z,17.02
2019-04-03T08:32:09.029Z,17.17
2019-04-03T08:34:40.293Z,17.30
2019-04-03T08:37:10.976Z,17.50
2019-04-03T08:39:41.419Z,17.67
2019-04-03T08:42:15.067Z,17.78
2019-04-03T08:44:44.972Z,17.94
2019-04-03T08:47:15.375Z,18.01
2019-04-03T08:49:46.927Z,17.93
2019-04-03T08:52:17.183Z,18.03
2019-04-03T08:54:47.284Z,17.93
2019-04-03T08:57:20.008Z,17.89
2019-04-03T08:59:52.346Z,17.89
2019-04-03T09:02:22.990Z,17.89
2019-04-03T09:04:55.636Z,18.00
2019-04-03T09:07:27.291Z,18.12
2019-04-03T09:10:00.422Z,18.17
2019-04-03T09:12:29.150Z,18.19
2019-04-03T09:14:59.401Z,17.73
2019-04-03T09:17:29.458Z,18.32
2019-04-03T09:19:59.729Z,18.35
2019-04-03T09:22:30.857Z,18.39
2019-04-03T09:25:04.168Z,18.24
2019-04-03T09:27:35.893Z,18.29
2019-04-03T09:30:09.859Z,18.43
2019-04-03T09:32:39.941Z,18.56
2019-04-03T09:35:11.494Z,18.59
2019-04-03T09:37:45.313Z,18.74
2019-04-03T09:40:17.309Z,18.75
2019-04-03T09:42:47.483Z,18.99
2019-04-03T09:45:20.878Z,19.15
2019-04-03T09:47:51.766Z,18.97
2019-04-03T09:50:22.983Z,19.34
2019-04-03T09:52:54.649Z,19.33
2019-04-03T09:55:31.387Z,19.36
2019-04-03T09:58:02.428Z,19.49
2019-04-03T10:00:35.235Z,19.72
2019-04-03T10:03:06.531Z,19.72
2019-04-03T10:05:36.321Z,19.68
2019-04-03T10:08:08.482Z,19.51
2019-04-03T10:10:39.349Z,19.55
2019-04-03T10:13:09.183Z,19.84
2019-04-03T10:15:40.358Z,19.97
2019-04-03T10:18:12.243Z,19.85
2019-04-03T10:20:42.281Z,19.84
2019-04-03T10:23:15.596Z,19.77
2019-04-03T10:25:45.762Z,19.73
2019-04-03T10:28:15.693Z,19.71
2019-04-03T10:30:47.492Z,19.80
2019-04-03T10:33:18.386Z,19.91
2019-04-03T10:35:48.518Z,20.03
2019-04-03T10:38:19.019Z,20.03
2019-04-03T10:40:48.955Z,19.77
2019-04-03T10:43:19.132Z,19.69
2019-04-03T10:45:48.984Z,19.64
2019-04-03T10:48:23.500Z,19.72
2019-04-03T10:50:53.993Z,19.81
2019-04-03T10:53:23.985Z,19.90
2019-04-03T10:55:55.383Z,19.92
2019-04-03T10:58:28.586Z,19.93
2019-04-03T11:01:02.803Z,19.74
2019-04-03T11:03:33.005Z,19.44
2019-04-03T11:06:06.257Z,19.38
2019-04-03T11:08:36.229Z,19.18
2019-04-03T11:11:06.289Z,18.91
2019-04-03T11:13:36.115Z,18.76
2019-04-03T11:16:06.528Z,18.81
2019-04-03T11:18:38.017Z,18.95
2019-04-03T11:21:12.176Z,19.29
2019-04-03T11:23:44.777Z,19.56
2019-04-03T11:26:13.861Z,19.09
2019-04-03T11:28:43.818Z,19.77
2019-04-03T11:31:24.982Z,19.96
2019-04-03T11:33:46.505Z,20.19
2019-04-03T11:36:16.749Z,20.14
2019-04-03T11:38:46.638Z,20.44
2019-04-03T11:41:19.603Z,20.69
2019-04-03T11:43:48.818Z,20.86
2019-04-03T11:46:19.009Z,20.90
2019-04-03T11:48:49.345Z,20.92
2019-04-03T11:51:22.143Z,20.90
2019-04-03T11:53:54.686Z,20.70
2019-04-03T11:56:24.517Z,20.42
2019-04-03T11:58:55.502Z,20.29
2019-04-03T12:01:26.954Z,20.19
2019-04-03T12:03:57.215Z,20.21
2019-04-03T12:06:27.405Z,20.31
2019-04-03T12:09:00.903Z,20.41
2019-04-03T12:11:30.640Z,20.57
2019-04-03T12:14:01.760Z,20.48
2019-04-03T12:16:31.798Z,20.48
2019-04-03T12:19:02.912Z,20.74
2019-04-03T12:21:34.769Z,20.89
2019-04-03T12:24:04.982Z,20.99
2019-04-03T12:26:35.462Z,21.04
2019-04-03T12:29:11.255Z,21.16
2019-04-03T12:31:44.240Z,21.36
2019-04-03T12:34:14.407Z,21.39
2019-04-03T12:36:46.197Z,21.30
2019-04-03T12:39:28.850Z,21.07
2019-04-03T12:41:59.410Z,21.41
2019-04-03T12:44:32.497Z,21.62
2019-04-03T12:47:06.914Z,21.92
2019-04-03T12:49:39.145Z,22.14
2019-04-03T12:52:09.278Z,22.32
2019-04-03T12:54:39.281Z,22.44
2019-04-03T12:57:10.502Z,22.46
2019-04-03T12:59:40.828Z,22.58
2019-04-03T13:02:13.122Z,22.61
2019-04-03T13:04:43.657Z,22.53
2019-04-03T13:07:15.144Z,22.43
2019-04-03T13:09:48.717Z,22.36
2019-04-03T13:12:23.090Z,22.24
2019-04-03T13:14:52.193Z,22.02
2019-04-03T13:17:22.689Z,21.81
2019-04-03T13:19:53.072Z,21.56
2019-04-03T13:22:24.377Z,21.42
2019-04-03T13:24:54.738Z,21.29
2019-04-03T13:27:24.945Z,21.26
2019-04-03T13:29:55.948Z,21.26
2019-04-03T13:32:26.138Z,21.21
2019-04-03T13:34:56.185Z,21.38
2019-04-03T13:37:25.977Z,21.56
2019-04-03T13:39:56.293Z,21.71
2019-04-03T13:42:26.449Z,21.73
2019-04-03T13:44:59.304Z,21.70
2019-04-03T13:47:28.334Z,21.86
2019-04-03T13:50:02.880Z,21.86
2019-04-03T13:52:41.739Z,21.90
2019-04-03T13:55:07.767Z,21.92
2019-04-03T13:57:38.422Z,22.14
2019-04-03T14:00:20.636Z,22.38
2019-04-03T14:02:44.966Z,22.04
2019-04-03T14:05:17.922Z,22.59
2019-04-03T14:07:48.235Z,22.50
2019-04-03T14:10:19.228Z,22.14
2019-04-03T14:12:49.163Z,21.80
2019-04-03T14:15:21.550Z,21.75
2019-04-03T14:17:58.983Z,21.69
2019-04-03T14:20:32.033Z,21.10
2019-04-03T14:23:13.277Z,21.57
2019-04-03T14:25:43.622Z,21.46
2019-04-03T14:28:21.965Z,21.48
2019-04-03T14:30:54.130Z,21.53
2019-04-03T14:33:26.061Z,21.55
2019-04-03T14:35:57.889Z,21.31
2019-04-03T14:38:29.274Z,21.34
2019-04-03T14:40:59.557Z,21.07
2019-04-03T14:43:34.606Z,21.17
2019-04-03T14:46:09.722Z,21.18
2019-04-03T14:48:39.757Z,21.15
2019-04-03T14:51:11.369Z,21.07
2019-04-03T14:53:41.640Z,21.03
2019-04-03T14:56:11.621Z,20.86
2019-04-03T14:58:41.941Z,20.89
2019-04-03T15:01:11.905Z,20.97
2019-04-03T15:03:41.908Z,20.98
2019-04-03T15:06:14.652Z,20.94
2019-04-03T15:08:44.141Z,20.89
2019-04-03T15:11:18.053Z,20.65
2019-04-03T15:13:49.819Z,20.46
2019-04-03T15:16:21.013Z,20.41
2019-04-03T15:18:52.524Z,20.48
2019-04-03T15:21:23.750Z,20.46
2019-04-03T15:23:54.252Z,20.63
2019-04-03T15:26:24.092Z,20.66
2019-04-03T15:28:54.707Z,20.69
2019-04-03T15:31:28.867Z,20.89
2019-04-03T15:33:59.475Z,21.16
2019-04-03T15:36:29.322Z,21.27
2019-04-03T15:39:00.054Z,21.23
2019-04-03T15:41:33.110Z,21.18
2019-04-03T15:44:01.944Z,21.04
2019-04-03T15:46:34.147Z,20.99
2019-04-03T15:49:04.448Z,20.95
2019-04-03T15:51:38.061Z,20.94
2019-04-03T15:54:07.236Z,20.90
2019-04-03T15:56:38.235Z,20.86
2019-04-03T15:59:10.554Z,20.66
2019-04-03T16:01:40.586Z,20.65
2019-04-03T16:04:10.559Z,20.57
2019-04-03T16:06:40.664Z,20.94
2019-04-03T16:09:11.379Z,21.29
2019-04-03T16:11:41.615Z,21.46
2019-04-03T16:14:12.862Z,21.23
2019-04-03T16:16:43.009Z,20.90
2019-04-03T16:19:13.127Z,20.59
2019-04-03T16:21:43.066Z,20.42
2019-04-03T16:24:14.678Z,20.37
2019-04-03T16:26:44.898Z,20.31
2019-04-03T16:29:15.316Z,20.22
2019-04-03T16:31:46.082Z,20.10
2019-04-03T16:34:19.606Z,19.95
2019-04-03T16:36:50.727Z,19.73
2019-04-03T16:39:21.479Z,19.54
2019-04-03T16:41:52.937Z,19.40
2019-04-03T16:44:25.648Z,19.23
2019-04-03T16:46:56.089Z,19.02
2019-04-03T16:49:28.436Z,18.80
2019-04-03T16:51:58.003Z,18.58
2019-04-03T16:54:29.593Z,18.42
2019-04-03T16:57:03.705Z,18.22
2019-04-03T16:59:37.354Z,18.03
2019-04-03T17:02:08.119Z,17.86
2019-04-03T17:04:38.745Z,17.66
2019-04-03T17:07:09.167Z,17.47
2019-04-03T17:09:39.671Z,17.31
2019-04-03T17:12:10.512Z,17.19
2019-04-03T17:14:42.661Z,17.05
2019-04-03T17:17:16.675Z,16.96
2019-04-03T17:19:49.931Z,16.83
2019-04-03T17:22:18.760Z,16.69
2019-04-03T17:24:53.745Z,16.55
2019-04-03T17:27:21.134Z,16.41
2019-04-03T17:29:53.852Z,16.36
2019-04-03T17:32:24.411Z,16.28
2019-04-03T17:34:57.477Z,15.57
2019-04-03T17:37:30.366Z,16.06
2019-04-03T17:39:59.105Z,15.94
2019-04-03T17:42:32.154Z,15.85
2019-04-03T17:45:08.891Z,15.78
2019-04-03T17:47:38.716Z,15.74
2019-04-03T17:50:09.738Z,15.63
2019-04-03T17:52:39.660Z,15.54
2019-04-03T17:55:10.928Z,15.47
2019-04-03T17:57:44.600Z,15.44
2019-04-03T18:00:14.988Z,15.35
2019-04-03T18:02:45.252Z,15.29
2019-04-03T18:05:15.740Z,15.23
2019-04-03T18:07:45.859Z,15.12
2019-04-03T18:10:19.130Z,15.01
2019-04-03T18:12:52.472Z,14.93
2019-04-03T18:15:24.202Z,14.85
2019-04-03T18:17:57.390Z,14.75
2019-04-03T18:20:28.589Z,14.69
2019-04-03T18:22:58.456Z,14.61
2019-04-03T18:25:29.359Z,14.56
2019-04-03T18:28:00.953Z,14.56
2019-04-03T18:30:31.605Z,14.57
2019-04-03T18:33:05.562Z,14.51
2019-04-03T18:35:35.691Z,14.48
2019-04-03T18:38:08.138Z,14.45
2019-04-03T18:40:38.816Z,14.45
2019-04-03T18:43:08.805Z,14.46
2019-04-03T18:45:39.201Z,14.45
2019-04-03T18:48:09.567Z,14.41
2019-04-03T18:50:40.845Z,14.44
2019-04-03T18:53:10.908Z,14.44
2019-04-03T18:55:40.772Z,14.46
2019-04-03T18:58:13.703Z,14.48
2019-04-03T19:00:43.706Z,14.51
2019-04-03T19:03:13.767Z,14.50
2019-04-03T19:05:43.783Z,14.55
2019-04-03T19:08:13.901Z,14.55
2019-04-03T19:10:43.726Z,14.56
2019-04-03T19:13:18.220Z,14.58
2019-04-03T19:15:48.065Z,14.56
2019-04-03T19:18:20.002Z,14.53
2019-04-03T19:20:50.130Z,14.56
2019-04-03T19:23:20.410Z,14.61
2019-04-03T19:25:50.614Z,14.62
2019-04-03T19:28:20.749Z,14.66
2019-04-03T19:30:50.550Z,14.72
2019-04-03T19:33:20.820Z,14.77
2019-04-03T19:35:51.154Z,14.81
2019-04-03T19:38:22.885Z,14.84
2019-04-03T19:40:53.161Z,14.87
2019-04-03T19:43:23.738Z,14.91
2019-04-03T19:45:54.832Z,14.95
2019-04-03T19:48:25.681Z,14.98
2019-04-03T19:50:57.633Z,15.02
2019-04-03T19:53:27.778Z,15.01
2019-04-03T19:55:57.817Z,15.04
2019-04-03T19:58:29.570Z,15.05
2019-04-03T20:00:59.726Z,15.04
2019-04-03T20:03:29.640Z,15.00
2019-04-03T20:06:01.197Z,15.03
2019-04-03T20:08:32.067Z,15.08
2019-04-03T20:11:03.018Z,15.04
2019-04-03T20:13:39.551Z,14.94
2019-04-03T20:16:08.623Z,14.67
2019-04-03T20:18:40.664Z,14.55
2019-04-03T20:21:11.835Z,14.45
2019-04-03T20:23:42.545Z,14.31
2019-04-03T20:26:12.816Z,14.12
2019-04-03T20:28:43.390Z,13.92
2019-04-03T20:31:15.676Z,13.82
2019-04-03T20:33:46.143Z,13.54
2019-04-03T20:36:20.212Z,13.21
2019-04-03T20:38:50.028Z,13.05
2019-04-03T20:41:20.142Z,12.80
2019-04-03T20:43:50.154Z,12.84
2019-04-03T20:46:20.062Z,12.11
2019-04-03T20:48:49.908Z,12.69
2019-04-03T20:51:19.831Z,12.46
2019-04-03T20:53:50.760Z,12.25
2019-04-03T20:56:21.545Z,12.08
2019-04-03T20:58:56.105Z,11.79
2019-04-03T21:01:23.834Z,11.40
2019-04-03T21:03:53.660Z,11.13
2019-04-03T21:06:23.507Z,10.83
2019-04-03T21:08:53.738Z,10.74
2019-04-03T21:11:23.616Z,10.61
2019-04-03T21:13:53.670Z,10.62
2019-04-03T21:16:33.138Z,10.46
2019-04-03T21:18:55.593Z,10.10
2019-04-03T21:21:26.081Z,9.74
2019-04-03T21:23:56.252Z,9.77
2019-04-03T21:26:26.145Z,9.69
2019-04-03T21:28:56.287Z,9.58
2019-04-03T21:31:26.618Z,9.53
2019-04-03T21:33:56.874Z,9.31
2019-04-03T21:36:27.401Z,9.22
2019-04-03T21:38:57.590Z,9.16
2019-04-03T21:41:27.613Z,9.12
2019-04-03T21:43:59.572Z,9.09
2019-04-03T21:46:30.304Z,8.99
2019-04-03T21:49:00.511Z,9.04
2019-04-03T21:51:33.550Z,9.01
2019-04-03T21:54:03.784Z,8.85
2019-04-03T21:56:33.713Z,8.85
2019-04-03T21:59:04.245Z,8.85
2019-04-03T22:01:34.807Z,8.84
2019-04-03T22:04:06.762Z,8.89
2019-04-03T22:06:39.104Z,8.71
2019-04-03T22:09:12.769Z,8.65
2019-04-03T22:11:43.080Z,8.65
2019-04-03T22:14:13.767Z,8.69
2019-04-03T22:16:44.087Z,8.69
2019-04-03T22:19:14.069Z,8.74
2019-04-03T22:21:44.428Z,8.54
2019-04-03T22:24:14.763Z,8.56
2019-04-03T22:26:45.322Z,8.56
2019-04-03T22:29:23.605Z,8.40
2019-04-03T22:31:57.227Z,8.44
2019-04-03T22:34:29.925Z,8.29
2019-04-03T22:37:03.784Z,8.27
2019-04-03T22:39:34.952Z,8.14
2019-04-03T22:42:05.584Z,8.24
2019-04-03T22:44:36.097Z,8.10
2019-04-03T22:47:07.086Z,8.17
2019-04-03T22:49:38.573Z,8.17
2019-04-03T22:52:09.474Z,8.20
2019-04-03T22:54:43.574Z,8.17
2019-04-03T22:57:13.283Z,8.17
2019-04-03T22:59:43.110Z,8.09
2019-04-03T23:02:13.410Z,8.08
2019-04-03T23:04:46.307Z,8.08
2019-04-03T23:07:16.482Z,8.08
2019-04-03T23:09:46.410Z,8.03
2019-04-03T23:12:16.435Z,7.91
2019-04-03T23:14:46.825Z,7.91
2019-04-03T23:17:16.758Z,7.86
2019-04-03T23:19:46.664Z,7.87
2019-04-03T23:22:16.872Z,7.86
2019-04-03T23:24:46.951Z,7.86
2019-04-03T23:27:17.239Z,7.77
2019-04-03T23:29:47.627Z,7.82
2019-04-03T23:32:18.266Z,7.80
2019-04-03T23:34:49.576Z,7.70
2019-04-03T23:37:20.514Z,7.69
2019-04-03T23:39:50.681Z,7.73
2019-04-03T23:42:20.768Z,7.71
2019-04-03T23:44:51.849Z,7.67
2019-04-03T23:47:21.735Z,7.61
2019-04-03T23:49:53.227Z,7.54
2019-04-03T23:52:23.579Z,7.63
2019-04-03T23:54:53.628Z,7.64
2019-04-03T23:57:23.456Z,7.74
2019-04-03T23:59:53.812Z,7.69
